Terminal Aerodrome Forecast
Issued by NWS Upton, NY

Home | Current Version | Previous Version | Text Only | Print | Product List | Glossary On
Versions: 1 2 3 4 5 6 7 8 9 10 11 12 13 14 15 16 17 18 19 20 21 22 23 24 25 26 27 28 29 30 31 32 33
000
FTUS41 KOKX 221120
TAFISP
TAF
KISP 221120Z 2212/2312 02010G19KT P6SM VCSH BKN050
     FM221400 03012G18KT P6SM -RA BKN040
     FM221800 04012G20KT 5SM -RA OVC015
     FM222100 04012G18KT 3SM -RA OVC008
      TEMPO 2221/2301 3SM -RAPL
     FM230100 04009KT 6SM BR OVC007
     FM230700 05007KT P6SM BKN012=

USA.gov is the U.S. government's official web portal to all federal, state and local government web resources and services.